Terminal Aerodrome Forecast
Issued by NWS Portland, OR

Home | Current Version | Previous Version | Text Only | Print | Product List | Glossary On
Versions: 1 2 3 4 5 6 7 8 9 10 11 12 13 14 15 16 17 18 19 20 21 22 23 24 25 26 27 28 29 30 31 32 33 34 35 36 37 38 39 40
000
FTUS46 KPQR 231548 AAC
TAFEUG
TAF AMD
KEUG 231548Z 2316/2412 17004KT P6SM SCT030 BKN080 OVC150
     FM231800 19008KT P6SM SCT050 BKN080
     FM240300 15006KT P6SM -RA BKN045 OVC070
     FM240700 17009KT 6SM RADZ BR BKN025 OVC040=

USA.gov is the U.S. government's official web portal to all federal, state and local government web resources and services.